TimeCDT,TemperatureF,Dew PointF,Humidity,Sea Level PressureIn,VisibilityMPH,Wind Direction,Wind SpeedMPH,Gust SpeedMPH,PrecipitationIn,Events,Conditions,WindDirDegrees,DateUTC
12:53 AM,75.0,72.0,90,29.78,8.0,SW,5.8,-,N/A,,Clear,220,2013-08-07 05:53:00
1:53 AM,73.9,71.1,91,29.77,6.0,SW,4.6,-,N/A,,Mist,220,2013-08-07 06:53:00
2:53 AM,73.0,71.1,93,29.75,5.0,SW,3.5,-,N/A,,Clear,230,2013-08-07 07:53:00
3:53 AM,73.0,70.0,90,29.76,9.0,Calm,Calm,-,N/A,,Clear,0,2013-08-07 08:53:00
4:53 AM,70.0,68.0,93,29.76,2.5,SW,3.5,-,N/A,,Clear,230,2013-08-07 09:53:00
5:03 AM,69.1,68.0,96,29.78,1.5,SW,3.5,-,N/A,,Clear,220,2013-08-07 10:03:00
5:16 AM,69.1,68.0,96,29.78,2.0,SW,3.5,-,N/A,,Clear,220,2013-08-07 10:16:00
5:28 AM,69.1,68.0,96,29.78,3.0,SSW,3.5,-,N/A,,Clear,200,2013-08-07 10:28:00
5:53 AM,70.0,68.0,93,29.78,7.0,SW,4.6,-,N/A,,Clear,220,2013-08-07 10:53:00
6:14 AM,68.0,66.9,96,29.80,2.0,Calm,Calm,-,N/A,,Clear,0,2013-08-07 11:14:00
6:41 AM,68.0,66.9,96,29.80,0.8,Calm,Calm,-,N/A,,Clear,0,2013-08-07 11:41:00
6:53 AM,69.1,66.9,93,29.80,1.2,Calm,Calm,-,N/A,,Clear,0,2013-08-07 11:53:00
7:04 AM,70.0,68.0,93,29.82,3.0,Calm,Calm,-,N/A,,Partly Cloudy,0,2013-08-07 12:04:00
7:53 AM,72.0,64.0,76,29.82,10.0,NNW,5.8,-,N/A,,Unknown,340,2013-08-07 12:53:00
8:53 AM,73.9,62.1,66,29.85,10.0,NNW,8.1,-,N/A,,Clear,340,2013-08-07 13:53:00
9:53 AM,77.0,63.0,62,29.85,10.0,NW,4.6,-,N/A,,Unknown,310,2013-08-07 14:53:00
10:53 AM,80.1,63.0,56,29.87,10.0,NW,10.4,17.3,N/A,,Clear,320,2013-08-07 15:53:00
11:53 AM,80.1,63.0,56,29.88,10.0,North,8.1,-,N/A,,Partly Cloudy,350,2013-08-07 16:53:00
12:53 PM,79.0,64.0,60,29.90,10.0,NNW,18.4,-,N/A,,Scattered Clouds,330,2013-08-07 17:53:00
1:14 PM,75.9,62.1,62,29.92,10.0,NNW,16.1,21.9,N/A,,Mostly Cloudy,330,2013-08-07 18:14:00
1:53 PM,75.0,62.1,64,29.92,10.0,NNW,13.8,-,N/A,,Overcast,330,2013-08-07 18:53:00
2:53 PM,73.9,60.1,62,29.93,10.0,North,6.9,-,N/A,,Unknown,10,2013-08-07 19:53:00
3:53 PM,79.0,60.1,52,29.91,10.0,North,8.1,-,N/A,,Mostly Cloudy,350,2013-08-07 20:53:00
4:53 PM,79.0,59.0,50,29.92,10.0,NW,8.1,-,N/A,,Partly Cloudy,320,2013-08-07 21:53:00
5:53 PM,79.0,59.0,50,29.92,10.0,NNE,5.8,-,N/A,,Partly Cloudy,20,2013-08-07 22:53:00
6:53 PM,77.0,57.0,50,29.93,10.0,North,4.6,-,N/A,,Clear,350,2013-08-07 23:53:00
7:53 PM,71.1,60.1,68,29.94,10.0,Calm,Calm,-,N/A,,Clear,0,2013-08-08 00:53:00
8:53 PM,66.0,60.1,81,29.97,10.0,Calm,Calm,-,N/A,,Clear,0,2013-08-08 01:53:00
9:53 PM,62.1,59.0,90,29.99,10.0,Calm,Calm,-,N/A,,Clear,0,2013-08-08 02:53:00
11:53 PM,62.1,60.1,93,30.00,7.0,Calm,Calm,-,N/A,,Overcast,0,2013-08-08 04:53:00